sensor_id;sensor_type;location;lat;lon;timestamp;P1;durP1;ratioP1;P2;durP2;ratioP2
28988;SDS011;16089;59.952;10.818;2022-12-20T00:00:54;14.60;;;5.97;;
28988;SDS011;16089;59.952;10.818;2022-12-20T00:03:21;16.67;;;6.75;;
28988;SDS011;16089;59.952;10.818;2022-12-20T00:05:47;13.43;;;6.50;;
28988;SDS011;16089;59.952;10.818;2022-12-20T00:08:14;14.48;;;7.25;;
28988;SDS011;16089;59.952;10.818;2022-12-20T00:10:43;12.13;;;5.82;;
28988;SDS011;16089;59.952;10.818;2022-12-20T00:13:09;13.93;;;6.50;;
28988;SDS011;16089;59.952;10.818;2022-12-20T00:15:36;12.93;;;5.63;;
28988;SDS011;16089;59.952;10.818;2022-12-20T00:18:02;14.23;;;5.97;;
28988;SDS011;16089;59.952;10.818;2022-12-20T00:20:29;12.18;;;5.72;;
28988;SDS011;16089;59.952;10.818;2022-12-20T00:22:55;10.70;;;5.30;;
28988;SDS011;16089;59.952;10.818;2022-12-20T00:25:22;12.32;;;5.00;;
28988;SDS011;16089;59.952;10.818;2022-12-20T00:27:49;12.77;;;6.05;;
28988;SDS011;16089;59.952;10.818;2022-12-20T00:30:16;10.63;;;4.90;;
28988;SDS011;16089;59.952;10.818;2022-12-20T00:32:43;10.82;;;5.50;;
28988;SDS011;16089;59.952;10.818;2022-12-20T00:35:09;12.70;;;6.20;;
28988;SDS011;16089;59.952;10.818;2022-12-20T00:37:36;9.55;;;5.07;;
28988;SDS011;16089;59.952;10.818;2022-12-20T00:40:02;11.80;;;5.43;;
28988;SDS011;16089;59.952;10.818;2022-12-20T00:42:29;10.55;;;5.40;;
28988;SDS011;16089;59.952;10.818;2022-12-20T00:44:56;11.02;;;4.68;;
28988;SDS011;16089;59.952;10.818;2022-12-20T00:47:23;12.52;;;5.32;;
28988;SDS011;16089;59.952;10.818;2022-12-20T00:49:49;11.52;;;5.10;;
28988;SDS011;16089;59.952;10.818;2022-12-20T00:52:15;11.70;;;5.07;;
28988;SDS011;16089;59.952;10.818;2022-12-20T00:54:41;12.73;;;5.43;;
28988;SDS011;16089;59.952;10.818;2022-12-20T00:57:08;11.82;;;5.05;;
28988;SDS011;16089;59.952;10.818;2022-12-20T00:59:34;12.85;;;6.18;;
28988;SDS011;16089;59.952;10.818;2022-12-20T01:02:02;12.80;;;6.22;;
28988;SDS011;16089;59.952;10.818;2022-12-20T01:04:28;11.90;;;5.47;;
28988;SDS011;16089;59.952;10.818;2022-12-20T01:06:54;13.77;;;5.40;;
28988;SDS011;16089;59.952;10.818;2022-12-20T01:09:20;8.98;;;4.90;;
28988;SDS011;16089;59.952;10.818;2022-12-20T01:11:47;9.85;;;5.07;;
28988;SDS011;16089;59.952;10.818;2022-12-20T01:14:14;12.45;;;6.00;;
28988;SDS011;16089;59.952;10.818;2022-12-20T01:16:41;9.82;;;5.32;;
28988;SDS011;16089;59.952;10.818;2022-12-20T01:19:10;10.25;;;4.68;;
28988;SDS011;16089;59.952;10.818;2022-12-20T01:21:36;10.15;;;4.90;;
28988;SDS011;16089;59.952;10.818;2022-12-20T01:24:03;9.82;;;4.90;;
28988;SDS011;16089;59.952;10.818;2022-12-20T01:26:30;10.68;;;5.15;;
28988;SDS011;16089;59.952;10.818;2022-12-20T01:28:57;10.70;;;4.97;;
28988;SDS011;16089;59.952;10.818;2022-12-20T01:31:24;9.55;;;4.32;;
28988;SDS011;16089;59.952;10.818;2022-12-20T01:33:51;9.07;;;4.35;;
28988;SDS011;16089;59.952;10.818;2022-12-20T01:36:19;10.05;;;4.25;;
28988;SDS011;16089;59.952;10.818;2022-12-20T01:38:46;9.95;;;4.22;;
28988;SDS011;16089;59.952;10.818;2022-12-20T01:41:13;7.72;;;4.18;;
28988;SDS011;16089;59.952;10.818;2022-12-20T01:43:47;5.95;;;3.08;;
28988;SDS011;16089;59.952;10.818;2022-12-20T01:46:13;7.47;;;3.28;;
28988;SDS011;16089;59.952;10.818;2022-12-20T01:48:40;9.23;;;4.53;;
28988;SDS011;16089;59.952;10.818;2022-12-20T01:51:07;8.07;;;4.03;;
28988;SDS011;16089;59.952;10.818;2022-12-20T01:53:35;8.02;;;3.80;;
28988;SDS011;16089;59.952;10.818;2022-12-20T01:56:02;8.88;;;3.80;;
28988;SDS011;16089;59.952;10.818;2022-12-20T01:58:29;8.43;;;3.88;;
28988;SDS011;16089;59.952;10.818;2022-12-20T02:00:56;8.15;;;3.65;;
28988;SDS011;16089;59.952;10.818;2022-12-20T02:03:23;7.60;;;3.72;;
28988;SDS011;16089;59.952;10.818;2022-12-20T02:05:50;7.43;;;3.60;;
28988;SDS011;16089;59.952;10.818;2022-12-20T02:08:17;7.10;;;3.20;;
28988;SDS011;16089;59.952;10.818;2022-12-20T02:10:53;7.22;;;3.17;;
28988;SDS011;16089;59.952;10.818;2022-12-20T02:13:27;6.57;;;3.13;;
28988;SDS011;16089;59.952;10.818;2022-12-20T02:15:57;6.70;;;3.17;;
28988;SDS011;16089;59.952;10.818;2022-12-20T02:18:25;6.60;;;2.97;;
28988;SDS011;16089;59.952;10.818;2022-12-20T02:20:59;6.80;;;2.38;;
28988;SDS011;16089;59.952;10.818;2022-12-20T02:26:21;5.85;;;2.45;;
28988;SDS011;16089;59.952;10.818;2022-12-20T02:28:56;4.10;;;1.95;;
28988;SDS011;16089;59.952;10.818;2022-12-20T02:31:31;4.15;;;1.88;;
28988;SDS011;16089;59.952;10.818;2022-12-20T02:33:59;3.92;;;2.03;;
28988;SDS011;16089;59.952;10.818;2022-12-20T02:36:27;5.35;;;2.08;;
28988;SDS011;16089;59.952;10.818;2022-12-20T02:38:53;3.72;;;1.90;;
28988;SDS011;16089;59.952;10.818;2022-12-20T02:41:20;3.88;;;1.92;;
28988;SDS011;16089;59.952;10.818;2022-12-20T02:43:48;5.07;;;2.10;;
28988;SDS011;16089;59.952;10.818;2022-12-20T02:46:33;4.45;;;1.75;;
28988;SDS011;16089;59.952;10.818;2022-12-20T02:49:01;2.70;;;1.48;;
28988;SDS011;16089;59.952;10.818;2022-12-20T02:51:29;2.78;;;1.13;;
28988;SDS011;16089;59.952;10.818;2022-12-20T02:53:57;3.35;;;1.20;;
28988;SDS011;16089;59.952;10.818;2022-12-20T02:56:26;3.75;;;1.48;;
28988;SDS011;16089;59.952;10.818;2022-12-20T02:58:54;3.85;;;1.52;;
28988;SDS011;16089;59.952;10.818;2022-12-20T03:01:22;3.47;;;1.83;;
28988;SDS011;16089;59.952;10.818;2022-12-20T03:03:51;4.00;;;1.88;;
28988;SDS011;16089;59.952;10.818;2022-12-20T03:06:18;3.90;;;1.95;;
28988;SDS011;16089;59.952;10.818;2022-12-20T03:08:44;3.60;;;1.90;;
28988;SDS011;16089;59.952;10.818;2022-12-20T03:11:11;3.78;;;1.80;;
28988;SDS011;16089;59.952;10.818;2022-12-20T03:13:38;3.72;;;1.90;;
28988;SDS011;16089;59.952;10.818;2022-12-20T03:16:04;3.97;;;2.05;;
28988;SDS011;16089;59.952;10.818;2022-12-20T03:18:31;4.50;;;2.25;;
28988;SDS011;16089;59.952;10.818;2022-12-20T03:20:59;5.55;;;2.08;;
28988;SDS011;16089;59.952;10.818;2022-12-20T03:23:25;4.22;;;1.80;;
28988;SDS011;16089;59.952;10.818;2022-12-20T03:25:51;3.83;;;1.92;;
28988;SDS011;16089;59.952;10.818;2022-12-20T03:28:17;3.53;;;1.60;;
28988;SDS011;16089;59.952;10.818;2022-12-20T03:30:44;4.78;;;2.22;;
28988;SDS011;16089;59.952;10.818;2022-12-20T03:33:10;4.82;;;2.15;;
28988;SDS011;16089;59.952;10.818;2022-12-20T03:35:37;5.93;;;2.28;;
28988;SDS011;16089;59.952;10.818;2022-12-20T03:38:04;4.75;;;1.88;;
28988;SDS011;16089;59.952;10.818;2022-12-20T03:40:31;5.22;;;2.42;;
28988;SDS011;16089;59.952;10.818;2022-12-20T03:42:57;5.32;;;2.40;;
28988;SDS011;16089;59.952;10.818;2022-12-20T03:45:23;5.63;;;2.72;;
28988;SDS011;16089;59.952;10.818;2022-12-20T03:47:49;6.25;;;2.40;;
28988;SDS011;16089;59.952;10.818;2022-12-20T03:50:16;3.42;;;1.92;;
28988;SDS011;16089;59.952;10.818;2022-12-20T03:52:42;5.47;;;2.53;;
28988;SDS011;16089;59.952;10.818;2022-12-20T03:55:10;6.28;;;2.60;;
28988;SDS011;16089;59.952;10.818;2022-12-20T03:57:37;5.28;;;2.40;;
28988;SDS011;16089;59.952;10.818;2022-12-20T04:00:04;5.53;;;2.20;;
28988;SDS011;16089;59.952;10.818;2022-12-20T04:02:30;5.35;;;2.67;;
28988;SDS011;16089;59.952;10.818;2022-12-20T04:04:57;3.30;;;1.70;;
28988;SDS011;16089;59.952;10.818;2022-12-20T04:07:23;5.05;;;2.50;;
28988;SDS011;16089;59.952;10.818;2022-12-20T04:09:49;6.07;;;2.65;;
28988;SDS011;16089;59.952;10.818;2022-12-20T04:12:17;4.90;;;2.55;;
28988;SDS011;16089;59.952;10.818;2022-12-20T04:14:43;4.68;;;2.30;;
28988;SDS011;16089;59.952;10.818;2022-12-20T04:17:10;5.10;;;2.28;;
28988;SDS011;16089;59.952;10.818;2022-12-20T04:19:36;4.07;;;2.28;;
28988;SDS011;16089;59.952;10.818;2022-12-20T04:22:02;3.40;;;1.88;;
28988;SDS011;16089;59.952;10.818;2022-12-20T04:24:28;3.53;;;1.35;;
28988;SDS011;16089;59.952;10.818;2022-12-20T04:26:55;3.17;;;1.55;;
28988;SDS011;16089;59.952;10.818;2022-12-20T04:29:22;4.03;;;1.77;;
28988;SDS011;16089;59.952;10.818;2022-12-20T04:31:48;3.20;;;1.60;;
28988;SDS011;16089;59.952;10.818;2022-12-20T04:34:15;2.88;;;1.30;;
28988;SDS011;16089;59.952;10.818;2022-12-20T04:36:41;3.42;;;1.65;;
28988;SDS011;16089;59.952;10.818;2022-12-20T04:39:07;3.63;;;1.55;;
28988;SDS011;16089;59.952;10.818;2022-12-20T04:41:34;3.22;;;1.60;;
28988;SDS011;16089;59.952;10.818;2022-12-20T04:44:00;3.90;;;1.70;;
28988;SDS011;16089;59.952;10.818;2022-12-20T04:46:27;4.85;;;1.90;;
28988;SDS011;16089;59.952;10.818;2022-12-20T04:48:54;3.80;;;1.83;;
28988;SDS011;16089;59.952;10.818;2022-12-20T04:51:20;2.97;;;1.50;;
28988;SDS011;16089;59.952;10.818;2022-12-20T04:53:46;3.95;;;2.00;;
28988;SDS011;16089;59.952;10.818;2022-12-20T04:56:12;2.95;;;1.60;;
28988;SDS011;16089;59.952;10.818;2022-12-20T04:58:39;4.05;;;2.00;;
28988;SDS011;16089;59.952;10.818;2022-12-20T05:01:05;2.92;;;1.50;;
28988;SDS011;16089;59.952;10.818;2022-12-20T05:03:33;3.47;;;1.70;;
28988;SDS011;16089;59.952;10.818;2022-12-20T05:05:59;3.42;;;1.77;;
28988;SDS011;16089;59.952;10.818;2022-12-20T05:08:25;3.38;;;1.25;;
28988;SDS011;16089;59.952;10.818;2022-12-20T05:10:52;3.33;;;1.52;;
28988;SDS011;16089;59.952;10.818;2022-12-20T05:13:18;4.20;;;1.77;;
28988;SDS011;16089;59.952;10.818;2022-12-20T05:15:44;3.70;;;1.60;;
28988;SDS011;16089;59.952;10.818;2022-12-20T05:18:15;2.30;;;1.17;;
28988;SDS011;16089;59.952;10.818;2022-12-20T05:20:42;2.22;;;1.23;;
28988;SDS011;16089;59.952;10.818;2022-12-20T05:23:09;2.10;;;1.10;;
28988;SDS011;16089;59.952;10.818;2022-12-20T05:25:53;2.27;;;0.90;;
28988;SDS011;16089;59.952;10.818;2022-12-20T05:28:37;4.05;;;1.45;;
28988;SDS011;16089;59.952;10.818;2022-12-20T05:31:04;2.30;;;0.98;;
28988;SDS011;16089;59.952;10.818;2022-12-20T05:33:30;3.90;;;1.40;;
28988;SDS011;16089;59.952;10.818;2022-12-20T05:35:58;3.33;;;1.60;;
28988;SDS011;16089;59.952;10.818;2022-12-20T05:38:24;6.38;;;1.85;;
28988;SDS011;16089;59.952;10.818;2022-12-20T05:40:51;3.13;;;1.50;;
28988;SDS011;16089;59.952;10.818;2022-12-20T05:43:18;2.30;;;1.17;;
28988;SDS011;16089;59.952;10.818;2022-12-20T05:45:45;2.78;;;1.30;;
28988;SDS011;16089;59.952;10.818;2022-12-20T05:48:11;2.50;;;1.10;;
28988;SDS011;16089;59.952;10.818;2022-12-20T05:50:38;3.83;;;1.48;;
28988;SDS011;16089;59.952;10.818;2022-12-20T05:53:05;2.05;;;0.88;;
28988;SDS011;16089;59.952;10.818;2022-12-20T05:55:32;2.78;;;1.05;;
28988;SDS011;16089;59.952;10.818;2022-12-20T05:57:58;2.70;;;1.20;;
28988;SDS011;16089;59.952;10.818;2022-12-20T06:00:24;3.35;;;1.55;;
28988;SDS011;16089;59.952;10.818;2022-12-20T06:02:50;2.65;;;1.30;;
28988;SDS011;16089;59.952;10.818;2022-12-20T06:05:17;2.83;;;1.55;;
28988;SDS011;16089;59.952;10.818;2022-12-20T06:07:43;3.80;;;1.58;;
28988;SDS011;16089;59.952;10.818;2022-12-20T06:10:11;2.70;;;1.35;;
28988;SDS011;16089;59.952;10.818;2022-12-20T06:12:37;3.10;;;1.58;;
28988;SDS011;16089;59.952;10.818;2022-12-20T06:15:04;2.42;;;1.00;;
28988;SDS011;16089;59.952;10.818;2022-12-20T06:17:30;2.83;;;1.23;;
28988;SDS011;16089;59.952;10.818;2022-12-20T06:19:57;3.28;;;1.38;;
28988;SDS011;16089;59.952;10.818;2022-12-20T06:22:23;2.75;;;1.48;;
28988;SDS011;16089;59.952;10.818;2022-12-20T06:24:50;2.47;;;1.25;;
28988;SDS011;16089;59.952;10.818;2022-12-20T06:27:17;2.90;;;0.98;;
28988;SDS011;16089;59.952;10.818;2022-12-20T06:29:46;2.58;;;1.23;;
28988;SDS011;16089;59.952;10.818;2022-12-20T06:32:16;2.50;;;1.40;;
28988;SDS011;16089;59.952;10.818;2022-12-20T06:34:42;3.88;;;1.50;;
28988;SDS011;16089;59.952;10.818;2022-12-20T06:37:08;3.88;;;1.80;;
28988;SDS011;16089;59.952;10.818;2022-12-20T06:39:35;3.63;;;1.50;;
28988;SDS011;16089;59.952;10.818;2022-12-20T06:42:01;2.63;;;1.30;;
28988;SDS011;16089;59.952;10.818;2022-12-20T06:44:28;2.95;;;1.48;;
28988;SDS011;16089;59.952;10.818;2022-12-20T06:46:55;4.82;;;2.25;;
28988;SDS011;16089;59.952;10.818;2022-12-20T06:49:21;5.32;;;2.72;;
28988;SDS011;16089;59.952;10.818;2022-12-20T06:51:47;8.52;;;3.78;;
28988;SDS011;16089;59.952;10.818;2022-12-20T06:54:14;8.15;;;3.80;;
28988;SDS011;16089;59.952;10.818;2022-12-20T06:56:40;6.43;;;3.60;;
28988;SDS011;16089;59.952;10.818;2022-12-20T06:59:06;8.07;;;4.55;;
28988;SDS011;16089;59.952;10.818;2022-12-20T07:01:34;6.10;;;3.92;;
28988;SDS011;16089;59.952;10.818;2022-12-20T07:04:00;8.07;;;3.75;;
28988;SDS011;16089;59.952;10.818;2022-12-20T07:06:26;7.05;;;3.83;;
28988;SDS011;16089;59.952;10.818;2022-12-20T07:08:53;8.85;;;4.22;;
28988;SDS011;16089;59.952;10.818;2022-12-20T07:11:19;9.02;;;4.47;;
28988;SDS011;16089;59.952;10.818;2022-12-20T07:13:46;8.50;;;4.03;;
28988;SDS011;16089;59.952;10.818;2022-12-20T07:16:12;14.18;;;5.10;;
28988;SDS011;16089;59.952;10.818;2022-12-20T07:18:40;14.30;;;4.90;;
28988;SDS011;16089;59.952;10.818;2022-12-20T07:21:06;12.82;;;4.80;;
28988;SDS011;16089;59.952;10.818;2022-12-20T07:23:33;13.52;;;5.43;;
28988;SDS011;16089;59.952;10.818;2022-12-20T07:25:59;19.33;;;5.60;;
28988;SDS011;16089;59.952;10.818;2022-12-20T07:28:27;14.95;;;4.93;;
28988;SDS011;16089;59.952;10.818;2022-12-20T07:30:54;23.67;;;7.38;;
28988;SDS011;16089;59.952;10.818;2022-12-20T07:33:20;18.60;;;5.57;;
28988;SDS011;16089;59.952;10.818;2022-12-20T07:35:48;20.45;;;5.57;;
28988;SDS011;16089;59.952;10.818;2022-12-20T07:38:14;18.92;;;6.55;;
28988;SDS011;16089;59.952;10.818;2022-12-20T07:40:41;23.50;;;7.32;;
28988;SDS011;16089;59.952;10.818;2022-12-20T07:43:08;22.58;;;7.80;;
28988;SDS011;16089;59.952;10.818;2022-12-20T07:45:34;20.40;;;8.27;;
28988;SDS011;16089;59.952;10.818;2022-12-20T07:48:01;27.17;;;8.13;;
28988;SDS011;16089;59.952;10.818;2022-12-20T07:50:27;17.80;;;7.32;;
28988;SDS011;16089;59.952;10.818;2022-12-20T07:52:56;19.13;;;6.57;;
28988;SDS011;16089;59.952;10.818;2022-12-20T07:55:22;18.30;;;7.18;;
28988;SDS011;16089;59.952;10.818;2022-12-20T07:57:49;18.95;;;6.78;;
28988;SDS011;16089;59.952;10.818;2022-12-20T08:00:16;19.77;;;7.80;;
28988;SDS011;16089;59.952;10.818;2022-12-20T08:02:44;23.45;;;7.47;;
28988;SDS011;16089;59.952;10.818;2022-12-20T08:05:12;21.67;;;8.50;;
28988;SDS011;16089;59.952;10.818;2022-12-20T08:07:40;37.60;;;12.77;;
28988;SDS011;16089;59.952;10.818;2022-12-20T08:10:09;32.85;;;11.73;;
28988;SDS011;16089;59.952;10.818;2022-12-20T08:12:36;32.67;;;10.15;;
28988;SDS011;16089;59.952;10.818;2022-12-20T08:15:03;29.67;;;9.35;;
28988;SDS011;16089;59.952;10.818;2022-12-20T08:17:31;36.13;;;11.07;;
28988;SDS011;16089;59.952;10.818;2022-12-20T08:19:58;26.15;;;9.10;;
28988;SDS011;16089;59.952;10.818;2022-12-20T08:22:27;28.30;;;10.25;;
28988;SDS011;16089;59.952;10.818;2022-12-20T08:24:54;27.30;;;9.02;;
28988;SDS011;16089;59.952;10.818;2022-12-20T08:27:22;29.95;;;10.68;;
28988;SDS011;16089;59.952;10.818;2022-12-20T08:29:48;30.67;;;8.88;;
28988;SDS011;16089;59.952;10.818;2022-12-20T08:32:15;27.60;;;9.02;;
28988;SDS011;16089;59.952;10.818;2022-12-20T08:34:41;26.50;;;7.22;;
28988;SDS011;16089;59.952;10.818;2022-12-20T08:37:07;25.70;;;9.15;;
28988;SDS011;16089;59.952;10.818;2022-12-20T08:39:33;29.35;;;8.52;;
28988;SDS011;16089;59.952;10.818;2022-12-20T08:42:00;25.15;;;8.23;;
28988;SDS011;16089;59.952;10.818;2022-12-20T08:44:27;24.33;;;8.57;;
28988;SDS011;16089;59.952;10.818;2022-12-20T08:46:54;35.13;;;9.55;;
28988;SDS011;16089;59.952;10.818;2022-12-20T08:49:20;67.18;;;13.13;;
28988;SDS011;16089;59.952;10.818;2022-12-20T08:51:46;34.15;;;11.23;;
28988;SDS011;16089;59.952;10.818;2022-12-20T08:54:13;51.70;;;13.70;;
28988;SDS011;16089;59.952;10.818;2022-12-20T08:56:39;40.20;;;11.93;;
28988;SDS011;16089;59.952;10.818;2022-12-20T08:59:05;36.95;;;13.45;;
28988;SDS011;16089;59.952;10.818;2022-12-20T09:01:33;35.28;;;12.43;;
28988;SDS011;16089;59.952;10.818;2022-12-20T09:03:59;39.42;;;12.52;;
28988;SDS011;16089;59.952;10.818;2022-12-20T09:06:26;31.23;;;11.88;;
28988;SDS011;16089;59.952;10.818;2022-12-20T09:08:52;42.22;;;14.23;;
28988;SDS011;16089;59.952;10.818;2022-12-20T09:11:20;37.97;;;13.18;;
28988;SDS011;16089;59.952;10.818;2022-12-20T09:13:47;40.45;;;13.93;;
28988;SDS011;16089;59.952;10.818;2022-12-20T09:16:14;32.38;;;13.45;;
28988;SDS011;16089;59.952;10.818;2022-12-20T09:18:42;34.63;;;13.30;;
28988;SDS011;16089;59.952;10.818;2022-12-20T09:21:09;35.65;;;13.57;;
28988;SDS011;16089;59.952;10.818;2022-12-20T09:23:36;40.45;;;13.95;;
28988;SDS011;16089;59.952;10.818;2022-12-20T09:26:03;34.95;;;13.57;;
28988;SDS011;16089;59.952;10.818;2022-12-20T09:28:30;40.50;;;14.35;;
28988;SDS011;16089;59.952;10.818;2022-12-20T09:30:57;39.72;;;14.23;;
28988;SDS011;16089;59.952;10.818;2022-12-20T09:33:23;40.67;;;14.82;;
28988;SDS011;16089;59.952;10.818;2022-12-20T09:35:51;71.00;;;17.98;;
28988;SDS011;16089;59.952;10.818;2022-12-20T09:38:17;96.38;;;15.20;;
28988;SDS011;16089;59.952;10.818;2022-12-20T09:40:43;63.40;;;18.55;;
28988;SDS011;16089;59.952;10.818;2022-12-20T09:43:10;59.45;;;18.67;;
28988;SDS011;16089;59.952;10.818;2022-12-20T09:45:37;47.13;;;17.10;;
28988;SDS011;16089;59.952;10.818;2022-12-20T09:48:03;48.47;;;18.08;;
28988;SDS011;16089;59.952;10.818;2022-12-20T09:50:35;87.82;;;22.58;;
28988;SDS011;16089;59.952;10.818;2022-12-20T09:53:08;73.70;;;14.90;;
28988;SDS011;16089;59.952;10.818;2022-12-20T09:55:39;66.85;;;15.27;;
28988;SDS011;16089;59.952;10.818;2022-12-20T09:58:13;122.25;;;21.05;;
28988;SDS011;16089;59.952;10.818;2022-12-20T10:00:44;84.30;;;19.55;;
28988;SDS011;16089;59.952;10.818;2022-12-20T10:03:11;35.95;;;14.45;;
28988;SDS011;16089;59.952;10.818;2022-12-20T10:05:41;41.20;;;15.40;;
28988;SDS011;16089;59.952;10.818;2022-12-20T10:08:14;49.42;;;18.20;;
28988;SDS011;16089;59.952;10.818;2022-12-20T10:10:45;48.83;;;18.38;;
28988;SDS011;16089;59.952;10.818;2022-12-20T10:13:20;47.28;;;14.40;;
28988;SDS011;16089;59.952;10.818;2022-12-20T10:15:50;50.28;;;16.58;;
28988;SDS011;16089;59.952;10.818;2022-12-20T10:18:20;41.55;;;17.25;;
28988;SDS011;16089;59.952;10.818;2022-12-20T10:20:52;41.00;;;16.08;;
28988;SDS011;16089;59.952;10.818;2022-12-20T10:23:21;34.30;;;14.60;;
28988;SDS011;16089;59.952;10.818;2022-12-20T10:25:50;40.75;;;13.85;;
28988;SDS011;16089;59.952;10.818;2022-12-20T10:28:17;51.80;;;15.05;;
28988;SDS011;16089;59.952;10.818;2022-12-20T10:30:45;34.65;;;12.57;;
28988;SDS011;16089;59.952;10.818;2022-12-20T10:33:13;38.25;;;13.52;;
28988;SDS011;16089;59.952;10.818;2022-12-20T10:35:41;35.65;;;11.20;;
28988;SDS011;16089;59.952;10.818;2022-12-20T10:38:08;26.10;;;10.63;;
28988;SDS011;16089;59.952;10.818;2022-12-20T10:40:38;32.40;;;12.40;;
28988;SDS011;16089;59.952;10.818;2022-12-20T10:43:05;28.67;;;10.38;;
28988;SDS011;16089;59.952;10.818;2022-12-20T10:45:33;25.42;;;10.07;;
28988;SDS011;16089;59.952;10.818;2022-12-20T10:48:00;29.98;;;8.55;;
28988;SDS011;16089;59.952;10.818;2022-12-20T10:50:27;21.67;;;8.60;;
28988;SDS011;16089;59.952;10.818;2022-12-20T10:55:45;16.45;;;6.88;;
28988;SDS011;16089;59.952;10.818;2022-12-20T10:58:13;19.73;;;7.72;;
28988;SDS011;16089;59.952;10.818;2022-12-20T11:00:40;18.25;;;6.30;;
28988;SDS011;16089;59.952;10.818;2022-12-20T11:03:10;21.33;;;7.00;;
28988;SDS011;16089;59.952;10.818;2022-12-20T11:05:36;18.90;;;7.35;;
28988;SDS011;16089;59.952;10.818;2022-12-20T11:08:06;17.55;;;7.55;;
28988;SDS011;16089;59.952;10.818;2022-12-20T11:10:34;25.38;;;8.10;;
28988;SDS011;16089;59.952;10.818;2022-12-20T11:13:02;24.20;;;8.38;;
28988;SDS011;16089;59.952;10.818;2022-12-20T11:15:29;31.25;;;9.20;;
28988;SDS011;16089;59.952;10.818;2022-12-20T11:17:56;25.17;;;8.88;;
28988;SDS011;16089;59.952;10.818;2022-12-20T11:20:26;27.60;;;8.45;;
28988;SDS011;16089;59.952;10.818;2022-12-20T11:22:57;30.90;;;10.05;;
28988;SDS011;16089;59.952;10.818;2022-12-20T11:25:34;40.13;;;10.32;;
28988;SDS011;16089;59.952;10.818;2022-12-20T11:28:09;46.80;;;9.65;;
28988;SDS011;16089;59.952;10.818;2022-12-20T11:30:42;41.30;;;10.45;;
28988;SDS011;16089;59.952;10.818;2022-12-20T11:33:16;24.90;;;10.15;;
28988;SDS011;16089;59.952;10.818;2022-12-20T11:35:49;22.67;;;7.85;;
28988;SDS011;16089;59.952;10.818;2022-12-20T11:38:21;28.35;;;9.30;;
28988;SDS011;16089;59.952;10.818;2022-12-20T11:40:51;33.17;;;9.88;;
28988;SDS011;16089;59.952;10.818;2022-12-20T11:43:25;31.85;;;10.63;;
28988;SDS011;16089;59.952;10.818;2022-12-20T11:45:58;27.50;;;8.18;;
28988;SDS011;16089;59.952;10.818;2022-12-20T11:48:31;28.92;;;8.68;;
28988;SDS011;16089;59.952;10.818;2022-12-20T11:51:03;50.53;;;8.00;;
28988;SDS011;16089;59.952;10.818;2022-12-20T11:53:33;27.23;;;8.23;;
28988;SDS011;16089;59.952;10.818;2022-12-20T11:56:02;20.17;;;7.75;;
28988;SDS011;16089;59.952;10.818;2022-12-20T11:58:33;22.05;;;8.32;;
28988;SDS011;16089;59.952;10.818;2022-12-20T12:01:06;17.48;;;7.13;;
28988;SDS011;16089;59.952;10.818;2022-12-20T12:03:34;68.97;;;6.95;;
28988;SDS011;16089;59.952;10.818;2022-12-20T12:06:02;30.02;;;7.78;;
28988;SDS011;16089;59.952;10.818;2022-12-20T12:08:31;23.42;;;8.13;;
28988;SDS011;16089;59.952;10.818;2022-12-20T12:11:00;23.58;;;8.30;;
28988;SDS011;16089;59.952;10.818;2022-12-20T12:13:29;31.58;;;8.00;;
28988;SDS011;16089;59.952;10.818;2022-12-20T12:15:59;43.60;;;9.20;;
28988;SDS011;16089;59.952;10.818;2022-12-20T12:18:27;44.70;;;10.50;;
28988;SDS011;16089;59.952;10.818;2022-12-20T12:20:55;48.53;;;10.63;;
28988;SDS011;16089;59.952;10.818;2022-12-20T12:23:30;34.75;;;10.32;;
28988;SDS011;16089;59.952;10.818;2022-12-20T12:26:00;27.88;;;10.35;;
28988;SDS011;16089;59.952;10.818;2022-12-20T12:28:27;48.50;;;11.15;;
28988;SDS011;16089;59.952;10.818;2022-12-20T12:30:54;23.40;;;9.63;;
28988;SDS011;16089;59.952;10.818;2022-12-20T12:33:24;34.83;;;11.02;;
28988;SDS011;16089;59.952;10.818;2022-12-20T12:35:55;23.73;;;9.50;;
28988;SDS011;16089;59.952;10.818;2022-12-20T12:41:25;35.63;;;10.13;;
28988;SDS011;16089;59.952;10.818;2022-12-20T12:43:56;27.00;;;10.38;;
28988;SDS011;16089;59.952;10.818;2022-12-20T12:46:24;38.45;;;9.07;;
28988;SDS011;16089;59.952;10.818;2022-12-20T12:48:55;34.25;;;9.90;;
28988;SDS011;16089;59.952;10.818;2022-12-20T12:51:25;68.25;;;12.73;;
28988;SDS011;16089;59.952;10.818;2022-12-20T12:53:53;35.75;;;10.55;;
28988;SDS011;16089;59.952;10.818;2022-12-20T12:56:39;42.65;;;10.80;;
28988;SDS011;16089;59.952;10.818;2022-12-20T13:01:51;51.25;;;10.70;;
28988;SDS011;16089;59.952;10.818;2022-12-20T13:04:23;35.17;;;10.50;;
28988;SDS011;16089;59.952;10.818;2022-12-20T13:06:52;49.75;;;9.77;;
28988;SDS011;16089;59.952;10.818;2022-12-20T13:09:21;146.07;;;10.55;;
28988;SDS011;16089;59.952;10.818;2022-12-20T13:12:00;47.13;;;8.73;;
28988;SDS011;16089;59.952;10.818;2022-12-20T13:14:47;51.35;;;11.35;;
28988;SDS011;16089;59.952;10.818;2022-12-20T13:20:01;72.07;;;12.07;;
28988;SDS011;16089;59.952;10.818;2022-12-20T13:22:27;49.38;;;8.93;;
28988;SDS011;16089;59.952;10.818;2022-12-20T13:24:54;53.10;;;10.85;;
28988;SDS011;16089;59.952;10.818;2022-12-20T13:27:22;42.55;;;10.77;;
28988;SDS011;16089;59.952;10.818;2022-12-20T13:29:58;57.72;;;9.52;;
28988;SDS011;16089;59.952;10.818;2022-12-20T13:37:54;118.07;;;8.93;;
28988;SDS011;16089;59.952;10.818;2022-12-20T13:40:22;63.22;;;9.15;;
28988;SDS011;16089;59.952;10.818;2022-12-20T13:42:51;83.70;;;8.80;;
28988;SDS011;16089;59.952;10.818;2022-12-20T13:45:20;102.93;;;9.02;;
28988;SDS011;16089;59.952;10.818;2022-12-20T13:47:47;115.88;;;13.48;;
28988;SDS011;16089;59.952;10.818;2022-12-20T13:50:28;104.43;;;11.80;;
28988;SDS011;16089;59.952;10.818;2022-12-20T13:52:57;68.38;;;11.13;;
28988;SDS011;16089;59.952;10.818;2022-12-20T13:55:29;51.97;;;6.82;;
28988;SDS011;16089;59.952;10.818;2022-12-20T13:57:56;171.82;;;13.13;;
28988;SDS011;16089;59.952;10.818;2022-12-20T14:00:23;102.13;;;10.45;;
28988;SDS011;16089;59.952;10.818;2022-12-20T14:02:50;193.35;;;13.07;;
28988;SDS011;16089;59.952;10.818;2022-12-20T14:05:19;119.93;;;9.60;;
28988;SDS011;16089;59.952;10.818;2022-12-20T14:07:54;70.53;;;9.00;;
28988;SDS011;16089;59.952;10.818;2022-12-20T14:10:24;101.55;;;11.20;;
28988;SDS011;16089;59.952;10.818;2022-12-20T14:12:51;110.20;;;13.48;;
28988;SDS011;16089;59.952;10.818;2022-12-20T14:15:22;99.28;;;11.60;;
28988;SDS011;16089;59.952;10.818;2022-12-20T14:17:48;94.03;;;12.68;;
28988;SDS011;16089;59.952;10.818;2022-12-20T14:20:15;70.95;;;9.25;;
28988;SDS011;16089;59.952;10.818;2022-12-20T14:22:44;196.48;;;10.90;;
28988;SDS011;16089;59.952;10.818;2022-12-20T14:25:16;74.43;;;9.93;;
28988;SDS011;16089;59.952;10.818;2022-12-20T14:27:44;150.35;;;9.90;;
28988;SDS011;16089;59.952;10.818;2022-12-20T14:30:30;76.25;;;7.13;;
28988;SDS011;16089;59.952;10.818;2022-12-20T14:32:57;60.40;;;6.72;;
28988;SDS011;16089;59.952;10.818;2022-12-20T14:35:23;38.28;;;6.22;;
28988;SDS011;16089;59.952;10.818;2022-12-20T14:37:51;13.27;;;5.60;;
28988;SDS011;16089;59.952;10.818;2022-12-20T14:40:18;18.00;;;6.45;;
28988;SDS011;16089;59.952;10.818;2022-12-20T14:42:46;11.35;;;5.07;;
28988;SDS011;16089;59.952;10.818;2022-12-20T14:45:16;14.65;;;6.30;;
28988;SDS011;16089;59.952;10.818;2022-12-20T14:47:47;13.30;;;5.82;;